Time;durP1;ratioP1;P1;durP2;ratioP2;P2;SDS_P1;SDS_P2;PMS_P1;PMS_P2;Temp;Humidity;BMP_temperature;BMP_pressure;BME280_temperature;BME280_humidity;BME280_pressure;Samples;Min_cycle;Max_cycle;Signal;HPM_P1;HPM_P2
2022/09/26 00:02:01;;;;;;;17.20;11.30;;;;;;;11.98;70.04;98204.51;105948;1274;25297;-77
2022/09/26 00:04:30;;;;;;;17.70;11.00;;;;;;;11.94;70.13;98200.36;106279;1272;24315;-84
2022/09/26 00:07:00;;;;;;;18.10;11.10;;;;;;;11.92;70.22;98192.00;106307;1274;25343;-80
2022/09/26 00:09:29;;;;;;;16.80;10.20;;;;;;;11.91;70.23;98187.41;106308;1274;22540;-84
2022/09/26 00:11:56;;;;;;;16.80;10.30;;;;;;;11.93;70.18;98187.09;106016;1274;25422;-79
2022/09/26 00:14:26;;;;;;;15.90;10.00;;;;;;;11.95;70.24;98188.49;105968;1274;22596;-77
2022/09/26 00:16:54;;;;;;;16.50;11.00;;;;;;;11.98;70.21;98191.84;106050;1274;25579;-78
2022/09/26 00:19:24;;;;;;;17.40;11.40;;;;;;;11.99;70.24;98185.07;106080;1274;24991;-80
2022/09/26 00:21:51;;;;;;;18.20;11.40;;;;;;;12.01;70.29;98185.43;105949;1274;25414;-78
2022/09/26 00:24:26;;;;;;;18.10;11.00;;;;;;;12.01;70.32;98184.19;106059;1274;22552;-83
2022/09/26 00:26:53;;;;;;;17.90;10.20;;;;;;;11.98;70.25;98183.81;105956;1274;23852;-77
2022/09/26 00:29:20;;;;;;;17.90;11.20;;;;;;;11.93;70.37;98179.95;106283;1274;24238;-77
2022/09/26 00:31:53;;;;;;;16.50;10.70;;;;;;;11.90;70.55;98176.43;106279;1274;25232;-77
2022/09/26 00:34:20;;;;;;;17.50;11.00;;;;;;;11.88;70.45;98178.10;106059;1274;24253;-77
2022/09/26 00:36:48;;;;;;;19.70;11.50;;;;;;;11.86;70.54;98175.19;106279;1274;25222;-77
2022/09/26 00:39:18;;;;;;;17.80;12.00;;;;;;;11.87;70.76;98173.88;105982;1274;25439;-81
2022/09/26 00:41:50;;;;;;;17.50;11.90;;;;;;;11.88;70.68;98168.10;105949;1274;22622;-78
2022/09/26 00:44:40;;;;;;;18.10;11.40;;;;;;;11.90;70.64;98165.61;105918;1274;22536;-85
2022/09/26 00:47:34;;;;;;;19.00;12.20;;;;;;;11.89;70.74;98159.20;106337;1274;22543;-81
2022/09/26 00:50:26;;;;;;;21.60;11.50;;;;;;;11.86;70.70;98151.02;106311;1274;25664;-79
2022/09/26 00:53:00;;;;;;;18.50;10.90;;;;;;;11.82;70.79;98150.62;106311;1274;25301;-77
2022/09/26 00:55:33;;;;;;;19.50;12.30;;;;;;;11.79;70.95;98148.77;106316;1274;22533;-80
2022/09/26 00:58:15;;;;;;;18.60;11.50;;;;;;;11.78;70.98;98147.42;105975;1274;22555;-84
2022/09/26 01:00:47;;;;;;;19.20;11.40;;;;;;;11.79;71.01;98146.59;105982;1274;24415;-84
2022/09/26 01:03:15;;;;;;;19.80;12.80;;;;;;;11.81;71.01;98147.31;106090;1274;25296;-77
2022/09/26 01:05:46;;;;;;;19.00;12.20;;;;;;;11.83;71.08;98146.30;106291;1274;22540;-77
2022/09/26 01:08:17;;;;;;;16.90;12.10;;;;;;;11.81;71.04;98150.04;106315;1274;22540;-83
2022/09/26 01:10:44;;;;;;;18.90;12.00;;;;;;;11.79;71.16;98144.85;106119;1274;25442;-78
2022/09/26 01:13:16;;;;;;;18.70;11.90;;;;;;;11.77;71.06;98144.46;105882;1274;23200;-83
2022/09/26 01:15:43;;;;;;;18.60;12.00;;;;;;;11.75;71.13;98141.60;105956;1274;25238;-77
2022/09/26 01:18:11;;;;;;;17.50;11.40;;;;;;;11.76;71.20;98139.39;105888;1274;22543;-78
2022/09/26 01:20:55;;;;;;;19.30;11.80;;;;;;;11.75;71.20;98136.78;106344;1274;25301;-79
2022/09/26 01:23:39;;;;;;;18.50;11.30;;;;;;;11.76;71.28;98130.31;106106;1274;25299;-77
2022/09/26 01:26:52;;;;;;;18.80;12.10;;;;;;;11.76;71.41;98132.39;106249;1274;24209;-84
2022/09/26 01:29:57;;;;;;;21.10;12.80;;;;;;;11.77;71.32;98128.92;105756;1279;22697;-86
2022/09/26 01:32:48;;;;;;;19.20;11.70;;;;;;;11.78;71.29;98128.15;105647;1280;22549;-81
2022/09/26 01:35:36;;;;;;;18.70;11.90;;;;;;;11.72;71.27;98124.41;105634;1280;25225;-77
2022/09/26 01:38:32;;;;;;;19.20;11.70;;;;;;;11.68;71.28;98118.58;105749;1280;25184;-77
2022/09/26 01:41:36;;;;;;;18.20;11.90;;;;;;;11.65;71.44;98118.47;105700;1280;23937;-84
2022/09/26 01:44:47;;;;;;;19.00;11.50;;;;;;;11.63;71.62;98115.40;105746;1278;22563;-82
2022/09/26 01:47:42;;;;;;;19.70;12.10;;;;;;;11.62;71.49;98120.65;105702;1280;22552;-86
2022/09/26 01:50:35;;;;;;;19.40;11.70;;;;;;;11.62;71.55;98115.89;105781;1280;22563;-84
2022/09/26 01:53:11;;;;;;;20.00;12.70;;;;;;;11.60;71.56;98116.58;105758;1280;22650;-83
2022/09/26 01:55:44;;;;;;;18.80;11.10;;;;;;;11.61;71.47;98117.92;105675;1280;25662;-81
2022/09/26 01:58:20;;;;;;;22.40;11.60;;;;;;;11.60;71.55;98113.90;105780;1280;26491;-80
2022/09/26 02:00:49;;;;;;;16.70;10.90;;;;;;;11.59;71.63;98114.91;105773;1279;23971;-80
2022/09/26 02:03:26;;;;;;;14.50;9.40;;;;;;;11.58;71.55;98113.40;105771;1280;22642;-81
2022/09/26 02:06:01;;;;;;;17.00;10.40;;;;;;;11.58;71.67;98116.18;105795;1274;22554;-77
2022/09/26 02:08:53;;;;;;;16.00;9.50;;;;;;;11.60;71.67;98107.88;106357;1274;22550;-82
2022/09/26 02:11:25;;;;;;;16.50;9.90;;;;;;;11.60;71.78;98105.73;106116;1274;22596;-78
2022/09/26 02:14:17;;;;;;;17.60;10.20;;;;;;;11.59;71.67;98102.29;106065;1273;25243;-79
2022/09/26 02:16:50;;;;;;;19.00;11.10;;;;;;;11.57;71.80;98095.29;105950;1274;22568;-78
2022/09/26 02:19:25;;;;;;;20.90;10.20;;;;;;;11.57;71.89;98099.79;106322;1274;25433;-80
2022/09/26 02:21:57;;;;;;;17.00;10.40;;;;;;;11.59;71.82;98095.49;106365;1274;23947;-78
2022/09/26 02:24:32;;;;;;;20.70;10.70;;;;;;;11.62;71.91;98096.27;105961;1274;22617;-83
2022/09/26 02:26:59;;;;;;;18.20;9.60;;;;;;;11.67;71.89;98099.20;105944;1274;25456;-79
2022/09/26 02:29:26;;;;;;;18.40;11.70;;;;;;;11.72;72.00;98100.05;105946;1274;22605;-84
2022/09/26 02:32:04;;;;;;;16.60;10.60;;;;;;;11.75;71.87;98096.52;105997;1274;22553;-83
2022/09/26 02:34:57;;;;;;;17.90;11.00;;;;;;;11.78;72.05;98094.27;106274;1274;22530;-81
2022/09/26 02:37:27;;;;;;;21.80;11.40;;;;;;;11.79;71.81;98089.75;106015;1274;25577;-79
2022/09/26 02:39:57;;;;;;;16.90;10.40;;;;;;;11.79;71.96;98087.25;106097;1274;25311;-77
2022/09/26 02:43:12;;;;;;;16.80;9.90;;;;;;;11.78;71.90;98082.45;106306;1273;24293;-80
2022/09/26 02:45:50;;;;;;;14.00;8.70;;;;;;;11.81;72.09;98077.98;105956;1274;22563;-84
2022/09/26 02:48:47;;;;;;;14.10;8.30;;;;;;;11.79;72.00;98077.02;106082;1274;25591;-77
2022/09/26 02:51:25;;;;;;;15.70;8.70;;;;;;;11.81;72.05;98077.02;106039;1274;24388;-79
2022/09/26 02:54:24;;;;;;;12.80;8.10;;;;;;;11.86;72.01;98075.69;105925;1274;22549;-85
2022/09/26 02:57:22;;;;;;;12.70;7.70;;;;;;;11.85;71.92;98073.66;106305;1274;22586;-80
2022/09/26 02:59:58;;;;;;;13.70;8.20;;;;;;;11.88;71.99;98073.06;105967;1274;23210;-78
2022/09/26 03:02:44;;;;;;;12.30;7.70;;;;;;;11.90;72.09;98069.83;106055;1274;22534;-84
2022/09/26 03:05:25;;;;;;;14.50;7.90;;;;;;;11.92;72.13;98067.55;106335;1274;22544;-84
2022/09/26 03:08:19;;;;;;;13.10;7.50;;;;;;;11.93;72.12;98067.27;106301;1274;24125;-80
2022/09/26 03:11:27;;;;;;;;;;;;;;;;;;;;;
2022/09/26 03:14:05;;;;;;;12.60;7.10;;;;;;;11.99;72.21;98052.58;106241;1274;24255;-81
2022/09/26 03:16:42;;;;;;;12.50;7.30;;;;;;;12.03;72.22;98048.43;106285;1274;22741;-85
2022/09/26 03:19:54;;;;;;;13.50;7.60;;;;;;;12.07;72.23;98045.70;106288;1274;25339;-78
2022/09/26 03:22:24;;;;;;;12.40;7.50;;;;;;;12.11;72.32;98042.10;106270;1274;22553;-80
2022/09/26 03:24:52;;;;;;;16.20;8.00;;;;;;;12.12;72.32;98043.98;105940;1274;22615;-79
2022/09/26 03:27:26;;;;;;;14.50;8.20;;;;;;;12.04;72.24;98044.95;106273;1274;23160;-82
2022/09/26 03:30:04;;;;;;;12.20;7.10;;;;;;;11.99;72.39;98043.52;106090;1274;25294;-77
2022/09/26 03:32:43;;;;;;;14.80;8.10;;;;;;;12.02;72.49;98043.86;106004;1274;24258;-84
2022/09/26 03:35:16;;;;;;;19.50;9.40;;;;;;;12.04;72.41;98043.57;105947;1274;25206;-83
2022/09/26 03:37:47;;;;;;;15.10;8.50;;;;;;;12.07;72.40;98045.01;106007;1274;24283;-81
2022/09/26 03:40:22;;;;;;;14.40;8.80;;;;;;;12.11;72.38;98046.58;106074;1274;22647;-81
2022/09/26 03:43:18;;;;;;;17.90;10.90;;;;;;;12.11;72.48;98047.45;105834;1273;22561;-82
2022/09/26 03:45:46;;;;;;;17.50;9.80;;;;;;;12.07;72.14;98045.77;106014;1274;25234;-79
2022/09/26 03:48:22;;;;;;;19.60;10.50;;;;;;;11.96;72.35;98042.00;106049;1274;22593;-79
2022/09/26 03:50:54;;;;;;;16.80;10.10;;;;;;;11.92;72.42;98037.72;105924;1274;22701;-83
2022/09/26 03:53:27;;;;;;;16.50;10.50;;;;;;;11.85;72.51;98039.98;106019;1274;25288;-78
2022/09/26 03:56:08;;;;;;;16.30;9.90;;;;;;;11.84;72.58;98042.73;106058;1274;25404;-78
2022/09/26 03:58:38;;;;;;;14.60;9.00;;;;;;;11.86;72.57;98042.69;105971;1274;22547;-83
2022/09/26 04:01:52;;;;;;;15.50;10.10;;;;;;;11.91;72.66;98039.73;106140;1274;22528;-79
2022/09/26 04:04:31;;;;;;;16.20;9.80;;;;;;;12.00;72.65;98037.11;105988;1274;25496;-80
2022/09/26 04:06:59;;;;;;;16.70;10.20;;;;;;;12.02;72.61;98036.75;105925;1274;22558;-83
2022/09/26 04:09:31;;;;;;;16.50;10.10;;;;;;;12.04;72.56;98032.52;106018;1274;25588;-78
2022/09/26 04:12:05;;;;;;;17.20;9.90;;;;;;;12.04;72.75;98034.27;106073;1274;22537;-85
2022/09/26 04:14:38;;;;;;;20.40;11.80;;;;;;;12.02;72.58;98033.90;105966;1274;25476;-78
2022/09/26 04:17:05;;;;;;;16.70;10.70;;;;;;;11.95;72.50;98032.48;105969;1274;24313;-83
2022/09/26 04:19:36;;;;;;;19.90;11.00;;;;;;;11.83;72.61;98031.00;106031;1277;22831;-77
2022/09/26 04:22:06;;;;;;;20.10;11.00;;;;;;;11.72;72.52;98036.34;105948;1274;23173;-82
2022/09/26 04:24:38;;;;;;;19.00;10.10;;;;;;;11.66;72.75;98036.95;106291;1274;22688;-80
2022/09/26 04:27:07;;;;;;;16.70;10.90;;;;;;;11.71;72.95;98035.52;105975;1274;22541;-82
2022/09/26 04:29:44;;;;;;;15.40;10.00;;;;;;;11.79;73.03;98033.89;105937;1274;22560;-82
2022/09/26 04:32:18;;;;;;;18.60;10.90;;;;;;;11.85;73.00;98034.02;106043;1274;25636;-77
2022/09/26 04:35:19;;;;;;;18.90;11.00;;;;;;;11.90;73.06;98030.41;106062;1274;22566;-84
2022/09/26 04:37:46;;;;;;;16.50;10.40;;;;;;;11.91;73.03;98023.67;105911;1275;25240;-83
2022/09/26 04:40:25;;;;;;;16.50;10.20;;;;;;;11.92;72.98;98019.52;106002;1274;23167;-77
2022/09/26 04:43:29;;;;;;;14.90;9.20;;;;;;;11.91;72.97;98017.45;106272;1274;22588;-80
2022/09/26 04:46:11;;;;;;;14.60;9.70;;;;;;;11.96;73.01;98012.23;106345;1274;22603;-81
2022/09/26 04:48:39;;;;;;;14.90;9.30;;;;;;;12.00;73.22;98012.86;106058;1274;22535;-82
2022/09/26 04:51:14;;;;;;;17.30;10.00;;;;;;;12.05;73.23;98010.29;106032;1274;22549;-85
2022/09/26 04:53:43;;;;;;;16.00;9.70;;;;;;;12.09;73.05;98009.18;105944;1274;22829;-84
2022/09/26 04:56:30;;;;;;;17.50;9.70;;;;;;;12.12;73.13;98007.02;106039;1274;22709;-82
2022/09/26 04:59:01;;;;;;;19.10;11.40;;;;;;;12.14;73.10;98012.02;105938;1274;24298;-82
2022/09/26 05:01:46;;;;;;;16.60;9.40;;;;;;;12.07;73.15;98006.98;105936;1274;22691;-82
2022/09/26 05:04:19;;;;;;;16.40;9.80;;;;;;;12.10;73.43;98006.80;106011;1274;23912;-76
2022/09/26 05:06:45;;;;;;;16.20;9.30;;;;;;;12.15;73.46;98004.05;105905;1274;22609;-78
2022/09/26 05:09:21;;;;;;;17.70;10.00;;;;;;;12.24;73.49;98007.61;106378;1274;25229;-78
2022/09/26 05:11:57;;;;;;;15.80;9.30;;;;;;;12.26;73.18;98010.58;105949;1274;22554;-80
2022/09/26 05:14:28;;;;;;;13.80;8.60;;;;;;;12.24;73.29;98010.98;106165;1274;22537;-79
2022/09/26 05:16:57;;;;;;;16.40;9.30;;;;;;;12.27;73.46;98016.04;106289;1274;22865;-78
2022/09/26 05:19:25;;;;;;;16.30;8.50;;;;;;;12.29;73.26;98017.48;106015;1274;25301;-77
2022/09/26 05:22:24;;;;;;;14.40;8.50;;;;;;;12.30;73.39;98019.83;105965;1274;26527;-79
2022/09/26 05:27:49;;;;;;;13.40;8.40;;;;;;;12.31;73.49;98019.86;105968;1275;22552;-78
2022/09/26 05:30:31;;;;;;;14.60;9.20;;;;;;;12.33;73.31;98017.94;106049;1274;22604;-84
2022/09/26 05:33:06;;;;;;;16.70;9.40;;;;;;;12.28;73.26;98017.84;105998;1274;22792;-79
2022/09/26 05:36:07;;;;;;;17.60;9.10;;;;;;;12.27;73.43;98019.95;105989;1274;23913;-79
2022/09/26 05:38:38;;;;;;;17.20;9.90;;;;;;;12.28;73.59;98016.83;105908;1274;25724;-78
2022/09/26 05:41:06;;;;;;;14.00;8.90;;;;;;;12.31;73.66;98017.79;106029;1274;22882;-81
2022/09/26 05:43:33;;;;;;;18.20;9.20;;;;;;;12.34;73.54;98023.58;105805;1278;22523;-80
2022/09/26 05:46:04;;;;;;;15.40;8.60;;;;;;;12.38;73.58;98021.42;106103;1274;25228;-77
2022/09/26 05:48:39;;;;;;;14.30;8.70;;;;;;;12.42;73.60;98025.80;106068;1274;24336;-78
2022/09/26 05:51:12;;;;;;;12.70;8.00;;;;;;;12.46;73.53;98026.98;106075;1274;22553;-84
2022/09/26 05:53:43;;;;;;;14.80;8.80;;;;;;;12.50;73.52;98022.19;106290;1274;22535;-85
2022/09/26 05:56:18;;;;;;;15.50;9.10;;;;;;;12.51;73.51;98023.56;106247;1274;24208;-81
2022/09/26 05:59:05;;;;;;;18.40;10.10;;;;;;;12.43;73.43;98023.40;106298;1274;23148;-78
2022/09/26 06:01:51;;;;;;;17.40;9.00;;;;;;;12.35;73.55;98022.02;106132;1274;24208;-78
2022/09/26 06:04:28;;;;;;;14.60;9.00;;;;;;;12.32;73.60;98025.73;106317;1274;25462;-78
2022/09/26 06:07:18;;;;;;;13.70;8.80;;;;;;;12.32;73.75;98025.89;106040;1274;24274;-82
2022/09/26 06:09:53;;;;;;;17.30;9.50;;;;;;;12.36;73.79;98025.83;106007;1275;22574;-80
2022/09/26 06:12:36;;;;;;;17.40;10.20;;;;;;;12.35;73.72;98028.59;106301;1274;22557;-79
2022/09/26 06:15:26;;;;;;;16.70;10.00;;;;;;;12.34;73.78;98023.58;105952;1274;22720;-83
2022/09/26 06:18:03;;;;;;;16.70;9.50;;;;;;;12.40;74.06;98026.93;106284;1274;22626;-78
2022/09/26 06:20:34;;;;;;;18.60;10.00;;;;;;;12.45;73.87;98027.83;106039;1274;22547;-79
2022/09/26 06:23:16;;;;;;;16.70;9.30;;;;;;;12.43;73.79;98032.84;106280;1274;22544;-81
2022/09/26 06:25:45;;;;;;;14.10;9.10;;;;;;;12.42;73.97;98034.55;105961;1274;24206;-83
2022/09/26 06:28:18;;;;;;;18.00;9.90;;;;;;;12.49;74.01;98036.90;106267;1274;22550;-78
2022/09/26 06:30:45;;;;;;;20.10;9.80;;;;;;;12.54;74.11;98031.98;106243;1274;25263;-77
2022/09/26 06:33:20;;;;;;;15.40;7.80;;;;;;;12.57;74.06;98033.69;106239;1274;25682;-78
2022/09/26 06:36:05;;;;;;;10.30;5.50;;;;;;;12.55;73.73;98032.96;106226;1274;25470;-77
2022/09/26 06:38:37;;;;;;;9.90;5.10;;;;;;;12.47;73.74;98035.67;106265;1274;22700;-85
2022/09/26 06:41:15;;;;;;;10.60;5.20;;;;;;;12.45;73.95;98032.79;106263;1274;22537;-84
2022/09/26 06:43:48;;;;;;;11.00;4.90;;;;;;;12.45;73.71;98032.52;106321;1274;25477;-83
2022/09/26 06:46:49;;;;;;;11.00;5.00;;;;;;;12.42;73.83;98032.92;106124;1274;22537;-83
2022/09/26 06:49:27;;;;;;;8.80;5.00;;;;;;;12.43;73.71;98033.20;106340;1274;22809;-85
2022/09/26 06:52:12;;;;;;;9.40;5.00;;;;;;;12.39;73.66;98029.29;106270;1274;24234;-81
2022/09/26 06:54:40;;;;;;;8.60;4.60;;;;;;;12.36;73.84;98033.35;105956;1274;23037;-83
2022/09/26 06:57:10;;;;;;;9.90;5.10;;;;;;;12.35;73.80;98037.86;105940;1277;22735;-84
2022/09/26 06:59:58;;;;;;;10.50;4.50;;;;;;;12.33;73.84;98039.33;106030;1274;22810;-83
2022/09/26 07:02:52;;;;;;;10.60;4.80;;;;;;;12.39;73.95;98037.69;106276;1274;22551;-78
2022/09/26 07:05:43;;;;;;;9.50;5.10;;;;;;;12.45;74.07;98042.80;106272;1274;25294;-78
2022/09/26 07:08:10;;;;;;;12.40;6.60;;;;;;;12.50;73.85;98041.10;106183;1274;25489;-85
2022/09/26 07:10:37;;;;;;;11.90;7.20;;;;;;;12.49;73.96;98043.66;106161;1274;22689;-81
2022/09/26 07:13:15;;;;;;;14.20;7.70;;;;;;;12.51;73.98;98038.16;106248;1274;22555;-82
2022/09/26 07:16:06;;;;;;;13.70;7.40;;;;;;;12.56;74.24;98035.17;106040;1274;24377;-78
2022/09/26 07:18:59;;;;;;;15.20;7.80;;;;;;;12.72;74.38;98030.22;103824;1274;3302177;-82
2022/09/26 07:21:56;;;;;;;18.50;8.00;;;;;;;12.86;74.32;98032.03;106324;1274;24297;-81
2022/09/26 07:25:13;;;;;;;17.70;8.90;;;;;;;12.99;74.31;98032.89;106240;1274;22851;-82
2022/09/26 07:28:05;;;;;;;37.20;18.10;;;;;;;13.13;74.41;98029.73;106332;1274;25041;-81
2022/09/26 07:30:40;;;;;;;25.20;13.80;;;;;;;13.28;74.30;98029.40;106063;1274;22592;-78
2022/09/26 07:33:17;;;;;;;23.20;13.70;;;;;;;13.33;74.10;98031.45;106326;1274;25349;-78
2022/09/26 07:36:14;;;;;;;17.60;9.20;;;;;;;13.34;74.10;98030.93;105931;1275;22595;-84
2022/09/26 07:38:47;;;;;;;15.60;9.80;;;;;;;13.33;73.91;98028.91;106281;1274;24408;-83
2022/09/26 07:41:23;;;;;;;16.30;9.20;;;;;;;13.40;74.23;98029.81;106274;1273;23986;-80
2022/09/26 07:43:53;;;;;;;17.00;9.30;;;;;;;13.54;74.26;98028.73;106131;1274;25405;-78
2022/09/26 07:52:59;;;;;;;15.30;9.00;;;;;;;13.74;73.81;98028.08;106309;1274;25608;-81
2022/09/26 07:55:27;;;;;;;14.30;8.80;;;;;;;13.67;73.75;98025.63;106290;1274;22535;-81
2022/09/26 07:58:46;;;;;;;15.90;9.50;;;;;;;13.64;73.81;98025.00;106050;1274;24376;-80
2022/09/26 08:01:39;;;;;;;16.90;9.50;;;;;;;13.66;73.65;98022.14;106248;1274;24172;-78
2022/09/26 08:04:44;;;;;;;17.40;9.90;;;;;;;13.62;74.03;98018.77;106118;1274;22581;-79
2022/09/26 08:07:14;;;;;;;15.90;9.50;;;;;;;13.72;74.27;98018.73;106012;1274;25361;-78
2022/09/26 08:09:55;;;;;;;18.40;9.20;;;;;;;13.73;73.95;98022.49;106344;1274;23176;-82
2022/09/26 08:12:53;;;;;;;15.80;9.60;;;;;;;13.71;74.04;98020.43;106322;1274;25429;-78
2022/09/26 08:15:46;;;;;;;15.30;9.10;;;;;;;13.81;74.25;98022.98;106121;1274;25232;-77
2022/09/26 08:18:22;;;;;;;14.00;8.30;;;;;;;13.89;74.06;98025.73;106223;1274;25390;-77
2022/09/26 08:20:52;;;;;;;16.30;8.70;;;;;;;13.79;73.59;98025.64;106262;1274;22789;-83
2022/09/26 08:23:20;;;;;;;15.10;9.10;;;;;;;13.69;73.75;98025.41;106249;1274;22584;-78
2022/09/26 08:26:07;;;;;;;14.30;9.00;;;;;;;13.64;73.74;98031.64;105980;1274;24027;-84
2022/09/26 08:28:53;;;;;;;14.90;8.90;;;;;;;13.59;73.94;98030.59;106266;1274;24416;-80
2022/09/26 08:31:22;;;;;;;13.70;8.50;;;;;;;13.66;74.28;98032.05;106060;1275;22542;-85
2022/09/26 08:33:50;;;;;;;12.50;8.00;;;;;;;13.73;73.94;98037.19;106012;1275;24072;-79
2022/09/26 08:36:20;;;;;;;16.50;8.70;;;;;;;13.63;73.71;98035.48;106016;1274;22557;-82
2022/09/26 08:39:12;;;;;;;13.60;8.70;;;;;;;13.55;73.80;98034.31;106257;1274;25301;-77
2022/09/26 08:42:22;;;;;;;15.40;8.60;;;;;;;13.52;74.20;98035.69;106313;1274;25238;-78
2022/09/26 08:49:17;;;;;;;12.40;7.40;;;;;;;13.57;74.20;98035.46;105844;1276;22574;-79
2022/09/26 08:51:50;;;;;;;11.30;6.80;;;;;;;13.52;74.14;98036.27;105862;1278;24272;-82
2022/09/26 08:54:36;;;;;;;10.80;6.30;;;;;;;13.53;74.27;98034.75;105890;1277;24031;-85
2022/09/26 08:57:24;;;;;;;12.00;6.80;;;;;;;13.45;74.11;98031.80;105929;1277;25345;-78
2022/09/26 08:59:53;;;;;;;11.50;7.00;;;;;;;13.35;74.16;98034.96;105910;1277;25722;-79
2022/09/26 09:02:40;;;;;;;15.50;7.80;;;;;;;13.38;74.54;98038.58;105837;1278;22552;-86
2022/09/26 09:05:22;;;;;;;11.20;6.60;;;;;;;13.49;74.55;98036.80;105863;1277;22536;-82
2022/09/26 09:07:54;;;;;;;11.50;7.10;;;;;;;13.51;74.38;98033.34;105817;1277;25363;-79
2022/09/26 09:11:00;;;;;;;11.90;6.60;;;;;;;13.52;74.31;98034.52;105710;1278;23936;-84
2022/09/26 09:13:47;;;;;;;12.30;6.60;;;;;;;13.39;74.12;98039.23;105825;1278;22540;-79
2022/09/26 09:16:35;;;;;;;10.90;6.70;;;;;;;13.25;74.33;98039.18;105921;1277;25462;-77
2022/09/26 09:19:36;;;;;;;10.20;5.90;;;;;;;13.20;74.53;98041.58;105854;1277;22618;-82
2022/09/26 09:22:53;;;;;;;10.00;4.80;;;;;;;13.10;74.26;98047.38;105909;1277;25469;-78
2022/09/26 09:26:07;;;;;;;10.30;5.60;;;;;;;12.94;74.22;98045.95;106022;1274;22639;-81
2022/09/26 09:29:23;;;;;;;8.50;4.70;;;;;;;12.89;74.55;98044.30;106212;1274;24234;-79
2022/09/26 09:32:16;;;;;;;8.10;3.40;;;;;;;13.07;74.85;98043.23;106315;1274;25524;-76
2022/09/26 09:35:12;;;;;;;9.20;4.60;;;;;;;13.17;74.81;98043.86;106222;1274;25279;-82
2022/09/26 09:37:55;;;;;;;8.60;3.50;;;;;;;13.23;74.58;98045.94;106307;1274;25514;-79
2022/09/26 09:41:15;;;;;;;9.00;3.90;;;;;;;13.07;74.07;98046.23;106325;1274;22575;-77
2022/09/26 09:43:57;;;;;;;9.40;3.70;;;;;;;13.07;74.53;98052.04;106100;1275;24303;-81
2022/09/26 09:46:35;;;;;;;8.80;3.90;;;;;;;13.08;74.40;98052.78;106196;1275;22804;-81
2022/09/26 09:49:26;;;;;;;10.00;3.90;;;;;;;13.17;74.39;98055.23;106100;1274;22547;-84
2022/09/26 09:52:08;;;;;;;9.40;3.90;;;;;;;13.19;74.32;98054.69;106282;1274;24252;-82
2022/09/26 09:55:01;;;;;;;10.60;4.30;;;;;;;13.20;74.34;98057.31;106334;1274;24280;-82
2022/09/26 09:57:44;;;;;;;6.70;3.00;;;;;;;13.30;74.64;98053.52;106312;1274;25345;-78
2022/09/26 10:00:21;;;;;;;7.00;3.50;;;;;;;13.29;74.08;98054.52;106278;1274;24488;-84
2022/09/26 10:03:40;;;;;;;8.70;3.40;;;;;;;13.22;74.38;98057.48;105913;1275;25228;-77
2022/09/26 10:06:11;;;;;;;7.80;2.30;;;;;;;13.22;74.25;98060.48;106262;1275;25537;-79
2022/09/26 10:08:44;;;;;;;6.90;2.60;;;;;;;13.12;73.92;98062.21;106260;1274;25441;-84
2022/09/26 10:11:42;;;;;;;8.20;3.70;;;;;;;12.89;73.84;98064.99;106256;1274;22618;-79
2022/09/26 10:14:47;;;;;;;6.30;2.50;;;;;;;12.70;74.02;98060.27;106344;1274;25226;-77
2022/09/26 10:18:24;;;;;;;7.60;2.60;;;;;;;12.65;74.29;98063.94;106295;1274;24385;-82
2022/09/26 10:21:05;;;;;;;7.20;3.00;;;;;;;12.69;74.51;98068.89;106316;1274;22584;-81
2022/09/26 10:23:38;;;;;;;6.80;3.20;;;;;;;12.72;74.51;98062.16;106321;1274;22535;-80
2022/09/26 10:26:10;;;;;;;5.60;2.50;;;;;;;12.80;74.57;98059.27;106303;1274;25228;-78
2022/09/26 10:29:07;;;;;;;5.60;2.50;;;;;;;12.85;74.57;98060.78;106248;1274;25222;-79
2022/09/26 10:31:44;;;;;;;11.20;3.50;;;;;;;12.96;74.57;98057.00;106296;1274;22649;-78
2022/09/26 10:34:24;;;;;;;8.80;3.50;;;;;;;13.10;74.71;98055.39;106330;1274;22802;-86
2022/09/26 10:37:11;;;;;;;11.60;4.70;;;;;;;13.11;74.31;98050.33;106004;1274;22553;-81
2022/09/26 10:42:46;;;;;;;9.10;3.00;;;;;;;13.18;74.55;98044.63;106166;1274;22652;-81
2022/09/26 10:45:26;;;;;;;6.60;2.70;;;;;;;13.19;74.32;98040.39;105968;1276;22559;-83
2022/09/26 10:48:20;;;;;;;6.60;2.90;;;;;;;13.15;74.39;98038.15;106287;1274;22810;-83
2022/09/26 10:51:38;;;;;;;7.30;2.90;;;;;;;13.20;74.66;98032.68;106152;1274;25476;-81
2022/09/26 10:54:56;;;;;;;;;;;;;;;;;;;;;
2022/09/26 10:57:57;;;;;;;6.00;2.80;;;;;;;13.44;74.64;98026.39;105783;1281;25288;-78
2022/09/26 11:00:44;;;;;;;8.10;3.00;;;;;;;13.52;74.43;98032.30;105772;1281;22546;-84
2022/09/26 11:04:02;;;;;;;9.10;4.10;;;;;;;13.54;74.30;98033.02;105694;1281;22736;-80
2022/09/26 11:07:05;;;;;;;;;;;;;;;;;;;;;
2022/09/26 11:09:45;;;;;;;5.90;2.40;;;;;;;13.54;74.37;98025.88;105919;1281;23331;-79
2022/09/26 11:13:27;;;;;;;9.30;3.60;;;;;;;13.56;74.23;98030.73;105592;1280;22581;-82
2022/09/26 11:16:19;;;;;;;11.00;3.60;;;;;;;13.70;75.00;98036.39;105701;1281;24319;-81
2022/09/26 11:19:05;;;;;;;9.00;3.40;;;;;;;13.88;74.80;98038.91;105717;1281;22787;-79
2022/09/26 11:22:13;;;;;;;8.10;3.00;;;;;;;14.08;74.63;98041.27;105701;1281;22782;-83
2022/09/26 11:25:00;;;;;;;6.80;2.80;;;;;;;14.35;74.95;98038.66;105696;1281;26519;-79
2022/09/26 11:28:00;;;;;;;6.10;2.70;;;;;;;14.63;74.68;98036.81;105665;1281;24262;-83
2022/09/26 11:30:55;;;;;;;;;;;;;;;;;;;;;
2022/09/26 11:33:24;;;;;;;7.00;2.80;;;;;;;14.75;73.99;98031.23;105874;1281;24411;-80
2022/09/26 11:37:07;;;;;;;7.00;3.10;;;;;;;14.85;73.87;98028.75;106001;1278;22598;-78
2022/09/26 11:39:47;;;;;;;9.00;3.20;;;;;;;15.11;74.46;98029.80;105952;1274;25310;-80
2022/09/26 11:42:15;;;;;;;9.40;3.30;;;;;;;15.61;74.49;98023.28;106341;1274;24406;-80
2022/09/26 11:45:04;;;;;;;7.20;3.10;;;;;;;15.81;74.58;98017.14;106135;1275;25588;-78
2022/09/26 11:48:15;;;;;;;8.60;2.80;;;;;;;15.61;72.93;98007.77;105990;1274;25236;-78
2022/09/26 11:51:33;;;;;;;6.10;2.70;;;;;;;15.30;73.59;98003.52;105981;1274;23285;-80
2022/09/26 11:54:32;;;;;;;6.40;2.80;;;;;;;15.21;73.66;97998.27;105774;1275;22826;-80
2022/09/26 11:57:22;;;;;;;5.80;2.70;;;;;;;15.21;73.96;97999.27;106083;1277;22563;-78
2022/09/26 11:59:55;;;;;;;7.30;3.30;;;;;;;15.28;73.79;98001.61;105769;1280;25293;-79
2022/09/26 12:02:32;;;;;;;7.00;3.20;;;;;;;15.23;73.51;97996.38;105734;1280;24437;-84
2022/09/26 12:05:27;;;;;;;5.70;2.40;;;;;;;15.15;73.43;97998.48;105766;1280;25502;-79
2022/09/26 12:08:25;;;;;;;4.70;2.10;;;;;;;15.01;73.20;97998.29;105825;1280;22557;-82
2022/09/26 12:11:09;;;;;;;6.20;2.50;;;;;;;14.93;73.70;97998.96;105639;1281;25435;-78
2022/09/26 12:14:21;;;;;;;5.60;2.40;;;;;;;14.98;73.73;98000.60;105872;1280;25443;-79
2022/09/26 12:17:07;;;;;;;4.40;2.00;;;;;;;14.85;73.87;98001.91;105280;1286;25406;-77
2022/09/26 12:20:07;;;;;;;5.80;2.10;;;;;;;14.89;73.65;97999.77;105513;1284;25644;-78
2022/09/26 12:22:55;;;;;;;7.90;3.00;;;;;;;14.82;73.40;97996.25;105276;1284;25295;-77
2022/09/26 12:26:00;;;;;;;4.20;1.60;;;;;;;14.74;73.34;97993.43;105134;1285;23973;-78
2022/09/26 12:29:04;;;;;;;7.30;2.40;;;;;;;14.62;73.04;97989.83;105399;1285;25662;-78
2022/09/26 12:31:56;;;;;;;6.50;2.50;;;;;;;14.71;73.79;97984.83;105376;1284;25234;-85
2022/09/26 12:34:55;;;;;;;21.50;10.10;;;;;;;14.78;73.47;97983.08;105301;1284;24214;-79
2022/09/26 12:37:31;;;;;;;8.60;4.90;;;;;;;14.81;73.56;97980.12;105308;1281;22589;-79
2022/09/26 12:40:20;;;;;;;9.70;3.70;;;;;;;14.92;73.63;97979.84;105471;1283;25463;-80
2022/09/26 12:43:21;;;;;;;7.00;2.70;;;;;;;14.93;73.18;97977.63;105634;1281;22634;-78
2022/09/26 12:46:20;;;;;;;6.90;3.00;;;;;;;14.84;73.16;97979.14;105662;1281;24309;-77
2022/09/26 12:49:14;;;;;;;6.50;2.70;;;;;;;14.89;73.38;97977.52;105266;1286;25374;-77
2022/09/26 12:51:48;;;;;;;7.90;2.20;;;;;;;14.93;73.29;97975.77;105128;1286;25569;-81
2022/09/26 12:55:00;;;;;;;6.80;2.30;;;;;;;14.86;72.74;97977.08;105405;1280;22594;-80